sensor_id;sensor_type;location;lat;lon;timestamp;temperature;humidity
24618;DHT22;12762;51.730;5.356;2023-05-10T00:01:55;14.50;93.70
24618;DHT22;12762;51.730;5.356;2023-05-10T00:04:26;14.50;93.70
24618;DHT22;12762;51.730;5.356;2023-05-10T00:07:00;14.40;93.70
24618;DHT22;12762;51.730;5.356;2023-05-10T00:09:27;14.40;93.60
24618;DHT22;12762;51.730;5.356;2023-05-10T00:11:53;14.40;93.70
24618;DHT22;12762;51.730;5.356;2023-05-10T00:14:20;14.40;93.70
24618;DHT22;12762;51.730;5.356;2023-05-10T00:16:47;14.40;93.80
24618;DHT22;12762;51.730;5.356;2023-05-10T00:19:14;14.40;93.80
24618;DHT22;12762;51.730;5.356;2023-05-10T00:21:41;14.30;93.70
24618;DHT22;12762;51.730;5.356;2023-05-10T00:24:08;14.30;93.80
24618;DHT22;12762;51.730;5.356;2023-05-10T00:26:35;14.30;93.80
24618;DHT22;12762;51.730;5.356;2023-05-10T00:29:05;14.30;93.80
24618;DHT22;12762;51.730;5.356;2023-05-10T00:31:33;14.30;93.80
24618;DHT22;12762;51.730;5.356;2023-05-10T00:34:00;14.30;93.80
24618;DHT22;12762;51.730;5.356;2023-05-10T00:36:28;14.30;93.80
24618;DHT22;12762;51.730;5.356;2023-05-10T00:38:55;14.20;93.80
24618;DHT22;12762;51.730;5.356;2023-05-10T00:41:21;14.20;93.80
24618;DHT22;12762;51.730;5.356;2023-05-10T00:43:48;14.20;93.80
24618;DHT22;12762;51.730;5.356;2023-05-10T00:46:15;14.10;93.70
24618;DHT22;12762;51.730;5.356;2023-05-10T00:48:43;14.10;93.70
24618;DHT22;12762;51.730;5.356;2023-05-10T00:51:11;14.10;93.70
24618;DHT22;12762;51.730;5.356;2023-05-10T00:53:38;14.10;93.70
24618;DHT22;12762;51.730;5.356;2023-05-10T00:56:05;14.00;93.70
24618;DHT22;12762;51.730;5.356;2023-05-10T00:58:36;14.00;93.70
24618;DHT22;12762;51.730;5.356;2023-05-10T01:01:04;14.00;93.80
24618;DHT22;12762;51.730;5.356;2023-05-10T01:03:32;14.00;93.80
24618;DHT22;12762;51.730;5.356;2023-05-10T01:05:59;13.90;93.70
24618;DHT22;12762;51.730;5.356;2023-05-10T01:08:28;13.90;93.80
24618;DHT22;12762;51.730;5.356;2023-05-10T01:10:55;13.90;93.80
24618;DHT22;12762;51.730;5.356;2023-05-10T01:13:39;13.90;93.80
24618;DHT22;12762;51.730;5.356;2023-05-10T01:16:10;13.90;93.70
24618;DHT22;12762;51.730;5.356;2023-05-10T01:18:39;13.90;93.80
24618;DHT22;12762;51.730;5.356;2023-05-10T01:24:09;13.80;93.80
24618;DHT22;12762;51.730;5.356;2023-05-10T01:27:03;13.90;93.70
24618;DHT22;12762;51.730;5.356;2023-05-10T01:32:30;13.80;93.80
24618;DHT22;12762;51.730;5.356;2023-05-10T01:35:08;13.90;93.80
24618;DHT22;12762;51.730;5.356;2023-05-10T01:37:50;13.90;93.90
24618;DHT22;12762;51.730;5.356;2023-05-10T01:41:13;13.90;93.80
24618;DHT22;12762;51.730;5.356;2023-05-10T01:43:25;13.90;93.80
24618;DHT22;12762;51.730;5.356;2023-05-10T01:46:09;13.90;93.90
24618;DHT22;12762;51.730;5.356;2023-05-10T01:48:48;13.90;93.70
24618;DHT22;12762;51.730;5.356;2023-05-10T01:51:21;13.90;93.80
24618;DHT22;12762;51.730;5.356;2023-05-10T01:53:52;13.90;93.80
24618;DHT22;12762;51.730;5.356;2023-05-10T01:56:24;13.90;93.80
24618;DHT22;12762;51.730;5.356;2023-05-10T01:58:53;13.90;93.90
24618;DHT22;12762;51.730;5.356;2023-05-10T02:01:21;13.90;93.90
24618;DHT22;12762;51.730;5.356;2023-05-10T02:03:51;13.90;93.90
24618;DHT22;12762;51.730;5.356;2023-05-10T02:06:20;13.90;93.90
24618;DHT22;12762;51.730;5.356;2023-05-10T02:08:49;13.90;93.90
24618;DHT22;12762;51.730;5.356;2023-05-10T02:11:18;13.90;93.90
24618;DHT22;12762;51.730;5.356;2023-05-10T02:13:49;13.90;93.90
24618;DHT22;12762;51.730;5.356;2023-05-10T02:16:17;13.90;93.90
24618;DHT22;12762;51.730;5.356;2023-05-10T02:18:46;13.90;94.00
24618;DHT22;12762;51.730;5.356;2023-05-10T02:21:14;13.90;93.90
24618;DHT22;12762;51.730;5.356;2023-05-10T02:23:43;14.00;94.00
24618;DHT22;12762;51.730;5.356;2023-05-10T02:26:11;14.00;94.00
24618;DHT22;12762;51.730;5.356;2023-05-10T02:28:39;14.00;94.00
24618;DHT22;12762;51.730;5.356;2023-05-10T02:31:07;14.00;93.90
24618;DHT22;12762;51.730;5.356;2023-05-10T02:33:38;13.90;93.90
24618;DHT22;12762;51.730;5.356;2023-05-10T02:36:08;13.90;93.90
24618;DHT22;12762;51.730;5.356;2023-05-10T02:38:36;13.90;93.90
24618;DHT22;12762;51.730;5.356;2023-05-10T02:41:08;13.90;94.00
24618;DHT22;12762;51.730;5.356;2023-05-10T02:43:35;13.90;94.00
24618;DHT22;12762;51.730;5.356;2023-05-10T02:46:06;13.90;94.10
24618;DHT22;12762;51.730;5.356;2023-05-10T02:48:36;13.90;94.10
24618;DHT22;12762;51.730;5.356;2023-05-10T02:51:07;13.90;94.10
24618;DHT22;12762;51.730;5.356;2023-05-10T02:53:36;13.90;94.10
24618;DHT22;12762;51.730;5.356;2023-05-10T02:56:08;13.90;94.10
24618;DHT22;12762;51.730;5.356;2023-05-10T02:58:36;13.90;94.10
24618;DHT22;12762;51.730;5.356;2023-05-10T03:01:03;13.90;94.10
24618;DHT22;12762;51.730;5.356;2023-05-10T03:03:30;14.00;94.20
24618;DHT22;12762;51.730;5.356;2023-05-10T03:05:57;13.90;94.10
24618;DHT22;12762;51.730;5.356;2023-05-10T03:08:25;14.00;94.20
24618;DHT22;12762;51.730;5.356;2023-05-10T03:16:38;14.00;94.20
24618;DHT22;12762;51.730;5.356;2023-05-10T03:22:11;14.00;94.10
24618;DHT22;12762;51.730;5.356;2023-05-10T03:24:41;14.00;94.20
24618;DHT22;12762;51.730;5.356;2023-05-10T03:27:08;14.00;94.30
24618;DHT22;12762;51.730;5.356;2023-05-10T03:29:36;14.00;94.30
24618;DHT22;12762;51.730;5.356;2023-05-10T03:32:03;14.00;94.30
24618;DHT22;12762;51.730;5.356;2023-05-10T03:34:30;14.00;94.30
24618;DHT22;12762;51.730;5.356;2023-05-10T03:37:00;14.00;94.30
24618;DHT22;12762;51.730;5.356;2023-05-10T03:39:27;14.00;94.30
24618;DHT22;12762;51.730;5.356;2023-05-10T03:41:54;14.00;94.40
24618;DHT22;12762;51.730;5.356;2023-05-10T03:44:20;14.00;94.40
24618;DHT22;12762;51.730;5.356;2023-05-10T03:46:47;14.00;94.40
24618;DHT22;12762;51.730;5.356;2023-05-10T03:49:14;14.00;94.40
24618;DHT22;12762;51.730;5.356;2023-05-10T03:51:41;14.00;94.40
24618;DHT22;12762;51.730;5.356;2023-05-10T03:54:08;14.00;94.50
24618;DHT22;12762;51.730;5.356;2023-05-10T03:56:35;14.00;94.50
24618;DHT22;12762;51.730;5.356;2023-05-10T03:59:02;14.00;94.50
24618;DHT22;12762;51.730;5.356;2023-05-10T04:01:34;14.00;94.50
24618;DHT22;12762;51.730;5.356;2023-05-10T04:04:01;14.10;94.60
24618;DHT22;12762;51.730;5.356;2023-05-10T04:06:28;14.10;94.60
24618;DHT22;12762;51.730;5.356;2023-05-10T04:08:55;14.10;94.50
24618;DHT22;12762;51.730;5.356;2023-05-10T04:11:22;14.10;94.50
24618;DHT22;12762;51.730;5.356;2023-05-10T04:13:49;14.10;94.50
24618;DHT22;12762;51.730;5.356;2023-05-10T04:16:16;14.10;94.50
24618;DHT22;12762;51.730;5.356;2023-05-10T04:18:42;14.10;94.50
24618;DHT22;12762;51.730;5.356;2023-05-10T04:21:12;14.10;94.60
24618;DHT22;12762;51.730;5.356;2023-05-10T04:23:40;14.10;94.50
24618;DHT22;12762;51.730;5.356;2023-05-10T04:26:07;14.10;94.50
24618;DHT22;12762;51.730;5.356;2023-05-10T04:28:37;14.10;94.50
24618;DHT22;12762;51.730;5.356;2023-05-10T04:31:08;14.10;94.50
24618;DHT22;12762;51.730;5.356;2023-05-10T04:33:36;14.10;94.90
24618;DHT22;12762;51.730;5.356;2023-05-10T04:36:06;14.10;94.60
24618;DHT22;12762;51.730;5.356;2023-05-10T04:38:33;14.10;94.90
24618;DHT22;12762;51.730;5.356;2023-05-10T04:41:10;14.10;94.60
24618;DHT22;12762;51.730;5.356;2023-05-10T04:43:37;14.10;94.60
24618;DHT22;12762;51.730;5.356;2023-05-10T04:46:06;14.00;94.50
24618;DHT22;12762;51.730;5.356;2023-05-10T04:48:34;14.10;94.50
24618;DHT22;12762;51.730;5.356;2023-05-10T04:51:04;14.00;94.80
24618;DHT22;12762;51.730;5.356;2023-05-10T04:53:31;14.00;94.50
24618;DHT22;12762;51.730;5.356;2023-05-10T04:55:58;14.00;94.50
24618;DHT22;12762;51.730;5.356;2023-05-10T04:58:25;14.00;94.50
24618;DHT22;12762;51.730;5.356;2023-05-10T05:00:52;13.90;94.40
24618;DHT22;12762;51.730;5.356;2023-05-10T05:03:19;13.90;94.50
24618;DHT22;12762;51.730;5.356;2023-05-10T05:05:46;13.90;94.50
24618;DHT22;12762;51.730;5.356;2023-05-10T05:08:13;13.90;94.50
24618;DHT22;12762;51.730;5.356;2023-05-10T05:10:40;13.90;94.50
24618;DHT22;12762;51.730;5.356;2023-05-10T05:13:06;13.90;94.40
24618;DHT22;12762;51.730;5.356;2023-05-10T05:15:33;13.90;94.40
24618;DHT22;12762;51.730;5.356;2023-05-10T05:18:00;13.90;94.50
24618;DHT22;12762;51.730;5.356;2023-05-10T05:20:27;13.90;94.50
24618;DHT22;12762;51.730;5.356;2023-05-10T05:22:54;13.90;94.50
24618;DHT22;12762;51.730;5.356;2023-05-10T05:25:21;13.90;94.50
24618;DHT22;12762;51.730;5.356;2023-05-10T05:27:48;13.90;94.50
24618;DHT22;12762;51.730;5.356;2023-05-10T05:30:15;13.90;94.50
24618;DHT22;12762;51.730;5.356;2023-05-10T05:32:42;13.90;94.50
24618;DHT22;12762;51.730;5.356;2023-05-10T05:35:11;13.90;94.40
24618;DHT22;12762;51.730;5.356;2023-05-10T05:37:38;13.90;94.40
24618;DHT22;12762;51.730;5.356;2023-05-10T05:40:06;13.90;94.50
24618;DHT22;12762;51.730;5.356;2023-05-10T05:42:33;13.90;94.50
24618;DHT22;12762;51.730;5.356;2023-05-10T05:44:59;14.00;94.50
24618;DHT22;12762;51.730;5.356;2023-05-10T05:47:26;14.00;94.50
24618;DHT22;12762;51.730;5.356;2023-05-10T05:49:53;14.00;94.40
24618;DHT22;12762;51.730;5.356;2023-05-10T05:52:20;14.00;94.40
24618;DHT22;12762;51.730;5.356;2023-05-10T05:54:47;14.00;94.40
24618;DHT22;12762;51.730;5.356;2023-05-10T05:57:17;14.00;94.40
24618;DHT22;12762;51.730;5.356;2023-05-10T05:59:44;14.00;94.40
24618;DHT22;12762;51.730;5.356;2023-05-10T06:02:11;14.00;94.40
24618;DHT22;12762;51.730;5.356;2023-05-10T06:04:38;14.10;94.40
24618;DHT22;12762;51.730;5.356;2023-05-10T06:07:05;14.10;94.40
24618;DHT22;12762;51.730;5.356;2023-05-10T06:09:34;14.10;94.40
24618;DHT22;12762;51.730;5.356;2023-05-10T06:12:01;14.10;94.30
24618;DHT22;12762;51.730;5.356;2023-05-10T06:14:28;14.20;94.40
24618;DHT22;12762;51.730;5.356;2023-05-10T06:16:55;14.20;94.30
24618;DHT22;12762;51.730;5.356;2023-05-10T06:19:22;14.20;94.30
24618;DHT22;12762;51.730;5.356;2023-05-10T06:21:49;14.20;94.30
24618;DHT22;12762;51.730;5.356;2023-05-10T06:24:19;14.30;94.30
24618;DHT22;12762;51.730;5.356;2023-05-10T06:26:46;14.30;94.30
24618;DHT22;12762;51.730;5.356;2023-05-10T06:29:15;14.30;94.20
24618;DHT22;12762;51.730;5.356;2023-05-10T06:31:42;14.30;94.20
24618;DHT22;12762;51.730;5.356;2023-05-10T06:34:09;14.40;94.30
24618;DHT22;12762;51.730;5.356;2023-05-10T06:36:38;14.40;94.20
24618;DHT22;12762;51.730;5.356;2023-05-10T06:39:05;14.40;94.20
24618;DHT22;12762;51.730;5.356;2023-05-10T06:41:32;14.40;94.20
24618;DHT22;12762;51.730;5.356;2023-05-10T06:43:59;14.40;94.20
24618;DHT22;12762;51.730;5.356;2023-05-10T06:46:25;14.40;94.20
24618;DHT22;12762;51.730;5.356;2023-05-10T06:48:52;14.40;94.10
24618;DHT22;12762;51.730;5.356;2023-05-10T06:51:25;14.40;94.10
24618;DHT22;12762;51.730;5.356;2023-05-10T06:53:52;14.50;94.20
24618;DHT22;12762;51.730;5.356;2023-05-10T06:56:19;14.50;94.10
24618;DHT22;12762;51.730;5.356;2023-05-10T06:59:04;14.50;94.10
24618;DHT22;12762;51.730;5.356;2023-05-10T07:01:31;14.40;94.00
24618;DHT22;12762;51.730;5.356;2023-05-10T07:03:58;14.40;94.10
24618;DHT22;12762;51.730;5.356;2023-05-10T07:06:25;14.40;94.00
24618;DHT22;12762;51.730;5.356;2023-05-10T07:08:59;14.40;94.10
24618;DHT22;12762;51.730;5.356;2023-05-10T07:11:27;14.40;94.10
24618;DHT22;12762;51.730;5.356;2023-05-10T07:13:53;14.40;94.10
24618;DHT22;12762;51.730;5.356;2023-05-10T07:16:20;14.40;94.10
24618;DHT22;12762;51.730;5.356;2023-05-10T07:18:51;14.40;94.10
24618;DHT22;12762;51.730;5.356;2023-05-10T07:21:19;14.40;94.10
24618;DHT22;12762;51.730;5.356;2023-05-10T07:23:46;14.50;94.20
24618;DHT22;12762;51.730;5.356;2023-05-10T07:26:13;14.50;94.10
24618;DHT22;12762;51.730;5.356;2023-05-10T07:28:41;14.40;94.10
24618;DHT22;12762;51.730;5.356;2023-05-10T07:31:08;14.50;94.10
24618;DHT22;12762;51.730;5.356;2023-05-10T07:33:37;14.40;94.00
24618;DHT22;12762;51.730;5.356;2023-05-10T07:36:10;14.40;94.10
24618;DHT22;12762;51.730;5.356;2023-05-10T07:38:37;14.40;94.20
24618;DHT22;12762;51.730;5.356;2023-05-10T07:41:06;14.50;94.20
24618;DHT22;12762;51.730;5.356;2023-05-10T07:43:33;14.50;94.20
24618;DHT22;12762;51.730;5.356;2023-05-10T07:46:00;14.50;94.60
24618;DHT22;12762;51.730;5.356;2023-05-10T07:48:27;14.60;94.30
24618;DHT22;12762;51.730;5.356;2023-05-10T07:50:54;14.60;94.30
24618;DHT22;12762;51.730;5.356;2023-05-10T07:53:21;14.60;94.20
24618;DHT22;12762;51.730;5.356;2023-05-10T07:55:51;14.70;94.20
24618;DHT22;12762;51.730;5.356;2023-05-10T07:58:20;14.70;94.30
24618;DHT22;12762;51.730;5.356;2023-05-10T08:00:48;14.80;94.30
24618;DHT22;12762;51.730;5.356;2023-05-10T08:03:15;15.00;94.30
24618;DHT22;12762;51.730;5.356;2023-05-10T08:05:42;15.10;94.20
24618;DHT22;12762;51.730;5.356;2023-05-10T08:08:09;15.10;94.10
24618;DHT22;12762;51.730;5.356;2023-05-10T08:10:36;15.10;93.80
24618;DHT22;12762;51.730;5.356;2023-05-10T08:13:03;15.10;93.70
24618;DHT22;12762;51.730;5.356;2023-05-10T08:15:30;15.10;93.70
24618;DHT22;12762;51.730;5.356;2023-05-10T08:17:57;15.10;93.70
24618;DHT22;12762;51.730;5.356;2023-05-10T08:20:24;15.10;93.90
24618;DHT22;12762;51.730;5.356;2023-05-10T08:22:51;15.00;93.50
24618;DHT22;12762;51.730;5.356;2023-05-10T08:25:18;15.00;93.60
24618;DHT22;12762;51.730;5.356;2023-05-10T08:27:45;15.00;93.70
24618;DHT22;12762;51.730;5.356;2023-05-10T08:30:12;15.00;93.70
24618;DHT22;12762;51.730;5.356;2023-05-10T08:32:39;15.00;93.70
24618;DHT22;12762;51.730;5.356;2023-05-10T08:35:06;15.00;93.60
24618;DHT22;12762;51.730;5.356;2023-05-10T08:37:33;15.00;93.60
24618;DHT22;12762;51.730;5.356;2023-05-10T08:40:00;15.10;93.60
24618;DHT22;12762;51.730;5.356;2023-05-10T08:42:30;15.10;93.60
24618;DHT22;12762;51.730;5.356;2023-05-10T08:44:59;15.20;93.50
24618;DHT22;12762;51.730;5.356;2023-05-10T08:47:26;15.20;93.30
24618;DHT22;12762;51.730;5.356;2023-05-10T08:49:54;15.20;93.40
24618;DHT22;12762;51.730;5.356;2023-05-10T08:52:21;15.20;93.40
24618;DHT22;12762;51.730;5.356;2023-05-10T08:54:49;15.40;93.50
24618;DHT22;12762;51.730;5.356;2023-05-10T08:57:17;15.40;93.40
24618;DHT22;12762;51.730;5.356;2023-05-10T08:59:46;15.60;93.30
24618;DHT22;12762;51.730;5.356;2023-05-10T09:02:13;15.60;93.20
24618;DHT22;12762;51.730;5.356;2023-05-10T09:04:44;15.60;93.10
24618;DHT22;12762;51.730;5.356;2023-05-10T09:07:11;15.70;93.10
24618;DHT22;12762;51.730;5.356;2023-05-10T09:09:39;15.70;93.10
24618;DHT22;12762;51.730;5.356;2023-05-10T09:12:06;15.70;93.00
24618;DHT22;12762;51.730;5.356;2023-05-10T09:14:35;15.80;93.10
24618;DHT22;12762;51.730;5.356;2023-05-10T09:17:02;16.00;93.20
24618;DHT22;12762;51.730;5.356;2023-05-10T09:19:29;16.10;92.80
24618;DHT22;12762;51.730;5.356;2023-05-10T09:21:56;16.20;92.90
24618;DHT22;12762;51.730;5.356;2023-05-10T09:24:26;16.30;92.70
24618;DHT22;12762;51.730;5.356;2023-05-10T09:26:57;16.40;92.50
24618;DHT22;12762;51.730;5.356;2023-05-10T09:29:24;16.50;92.40
24618;DHT22;12762;51.730;5.356;2023-05-10T09:31:51;16.60;92.30
24618;DHT22;12762;51.730;5.356;2023-05-10T09:34:29;16.70;92.20
24618;DHT22;12762;51.730;5.356;2023-05-10T09:36:58;16.80;92.20
24618;DHT22;12762;51.730;5.356;2023-05-10T09:39:34;16.90;91.80
24618;DHT22;12762;51.730;5.356;2023-05-10T09:42:04;17.00;91.80
24618;DHT22;12762;51.730;5.356;2023-05-10T09:44:35;17.20;91.50
24618;DHT22;12762;51.730;5.356;2023-05-10T09:47:08;17.30;91.20
24618;DHT22;12762;51.730;5.356;2023-05-10T09:49:35;17.30;90.90
24618;DHT22;12762;51.730;5.356;2023-05-10T09:52:07;17.30;90.70
24618;DHT22;12762;51.730;5.356;2023-05-10T09:54:34;17.30;90.60
24618;DHT22;12762;51.730;5.356;2023-05-10T09:57:01;17.40;90.70
24618;DHT22;12762;51.730;5.356;2023-05-10T09:59:29;17.40;90.60
24618;DHT22;12762;51.730;5.356;2023-05-10T10:01:58;17.50;90.50
24618;DHT22;12762;51.730;5.356;2023-05-10T10:04:26;17.50;90.40
24618;DHT22;12762;51.730;5.356;2023-05-10T10:07:04;17.60;90.50
24618;DHT22;12762;51.730;5.356;2023-05-10T10:09:34;17.70;90.40
24618;DHT22;12762;51.730;5.356;2023-05-10T10:12:02;17.80;90.30
24618;DHT22;12762;51.730;5.356;2023-05-10T10:14:30;17.80;90.20
24618;DHT22;12762;51.730;5.356;2023-05-10T10:17:00;17.90;90.00
24618;DHT22;12762;51.730;5.356;2023-05-10T10:19:30;17.90;89.40
24618;DHT22;12762;51.730;5.356;2023-05-10T10:22:00;17.90;89.10
24618;DHT22;12762;51.730;5.356;2023-05-10T10:24:27;17.90;88.70
24618;DHT22;12762;51.730;5.356;2023-05-10T10:26:57;17.80;88.50
24618;DHT22;12762;51.730;5.356;2023-05-10T10:29:39;17.70;88.20
24618;DHT22;12762;51.730;5.356;2023-05-10T10:35:04;17.60;88.30
24618;DHT22;12762;51.730;5.356;2023-05-10T10:37:44;17.60;88.60
24618;DHT22;12762;51.730;5.356;2023-05-10T10:40:28;17.60;88.40
24618;DHT22;12762;51.730;5.356;2023-05-10T10:42:58;17.60;88.40
24618;DHT22;12762;51.730;5.356;2023-05-10T10:48:34;17.40;88.10
24618;DHT22;12762;51.730;5.356;2023-05-10T10:51:01;17.30;88.30
24618;DHT22;12762;51.730;5.356;2023-05-10T10:53:28;17.30;88.20
24618;DHT22;12762;51.730;5.356;2023-05-10T10:56:10;17.20;88.40
24618;DHT22;12762;51.730;5.356;2023-05-10T10:58:38;17.20;88.30
24618;DHT22;12762;51.730;5.356;2023-05-10T11:03:40;17.10;88.50
24618;DHT22;12762;51.730;5.356;2023-05-10T11:06:07;17.10;88.60
24618;DHT22;12762;51.730;5.356;2023-05-10T11:08:41;17.10;88.70
24618;DHT22;12762;51.730;5.356;2023-05-10T11:11:14;17.10;88.70
24618;DHT22;12762;51.730;5.356;2023-05-10T11:13:45;17.10;88.50
24618;DHT22;12762;51.730;5.356;2023-05-10T11:18:53;17.10;88.20
24618;DHT22;12762;51.730;5.356;2023-05-10T11:21:20;17.10;88.10
24618;DHT22;12762;51.730;5.356;2023-05-10T11:23:48;17.10;88.00
24618;DHT22;12762;51.730;5.356;2023-05-10T11:26:16;17.10;88.00
24618;DHT22;12762;51.730;5.356;2023-05-10T11:28:47;17.10;88.20
24618;DHT22;12762;51.730;5.356;2023-05-10T11:31:18;17.20;88.20
24618;DHT22;12762;51.730;5.356;2023-05-10T11:33:48;17.20;88.20
24618;DHT22;12762;51.730;5.356;2023-05-10T11:36:19;17.20;88.20
24618;DHT22;12762;51.730;5.356;2023-05-10T11:38:46;17.30;88.20
24618;DHT22;12762;51.730;5.356;2023-05-10T11:41:15;17.30;88.10
24618;DHT22;12762;51.730;5.356;2023-05-10T11:43:46;17.40;88.40
24618;DHT22;12762;51.730;5.356;2023-05-10T11:46:17;17.50;88.40
24618;DHT22;12762;51.730;5.356;2023-05-10T11:48:49;17.60;88.60
24618;DHT22;12762;51.730;5.356;2023-05-10T11:51:24;17.90;88.90
24618;DHT22;12762;51.730;5.356;2023-05-10T11:53:54;18.10;88.70
24618;DHT22;12762;51.730;5.356;2023-05-10T11:56:21;18.40;88.50
24618;DHT22;12762;51.730;5.356;2023-05-10T11:58:55;18.60;88.00
24618;DHT22;12762;51.730;5.356;2023-05-10T12:01:26;18.90;87.50
24618;DHT22;12762;51.730;5.356;2023-05-10T12:03:55;19.20;87.30
24618;DHT22;12762;51.730;5.356;2023-05-10T12:06:33;19.50;86.50
24618;DHT22;12762;51.730;5.356;2023-05-10T12:09:06;19.60;85.70
24618;DHT22;12762;51.730;5.356;2023-05-10T12:11:38;19.80;85.30
24618;DHT22;12762;51.730;5.356;2023-05-10T12:14:09;19.80;84.40
24618;DHT22;12762;51.730;5.356;2023-05-10T12:16:37;19.80;84.20
24618;DHT22;12762;51.730;5.356;2023-05-10T12:19:04;19.80;83.80
24618;DHT22;12762;51.730;5.356;2023-05-10T12:21:32;19.80;84.00
24618;DHT22;12762;51.730;5.356;2023-05-10T12:24:03;19.70;83.60
24618;DHT22;12762;51.730;5.356;2023-05-10T12:26:30;19.70;83.50
24618;DHT22;12762;51.730;5.356;2023-05-10T12:29:16;19.60;83.60
24618;DHT22;12762;51.730;5.356;2023-05-10T12:31:58;19.60;83.80
24618;DHT22;12762;51.730;5.356;2023-05-10T12:34:32;19.60;83.80
24618;DHT22;12762;51.730;5.356;2023-05-10T12:37:00;19.50;83.70
24618;DHT22;12762;51.730;5.356;2023-05-10T12:39:39;19.40;83.70
24618;DHT22;12762;51.730;5.356;2023-05-10T12:42:06;19.30;83.70
24618;DHT22;12762;51.730;5.356;2023-05-10T12:44:33;19.20;83.50
24618;DHT22;12762;51.730;5.356;2023-05-10T12:47:00;19.00;84.00
24618;DHT22;12762;51.730;5.356;2023-05-10T12:49:27;18.90;83.20
24618;DHT22;12762;51.730;5.356;2023-05-10T12:51:54;18.80;83.40
24618;DHT22;12762;51.730;5.356;2023-05-10T12:54:21;18.60;83.30
24618;DHT22;12762;51.730;5.356;2023-05-10T12:56:47;18.50;83.10
24618;DHT22;12762;51.730;5.356;2023-05-10T12:59:14;18.40;83.40
24618;DHT22;12762;51.730;5.356;2023-05-10T13:01:41;18.30;83.50
24618;DHT22;12762;51.730;5.356;2023-05-10T13:04:09;18.20;83.70
24618;DHT22;12762;51.730;5.356;2023-05-10T13:06:36;18.10;83.70
24618;DHT22;12762;51.730;5.356;2023-05-10T13:09:02;18.00;83.60
24618;DHT22;12762;51.730;5.356;2023-05-10T13:11:30;18.00;83.80
24618;DHT22;12762;51.730;5.356;2023-05-10T13:13:56;17.90;83.70
24618;DHT22;12762;51.730;5.356;2023-05-10T13:16:23;17.80;83.80
24618;DHT22;12762;51.730;5.356;2023-05-10T13:18:55;17.70;83.70
24618;DHT22;12762;51.730;5.356;2023-05-10T13:21:22;17.60;84.00
24618;DHT22;12762;51.730;5.356;2023-05-10T13:23:54;17.60;84.20
24618;DHT22;12762;51.730;5.356;2023-05-10T13:26:20;17.60;84.50
24618;DHT22;12762;51.730;5.356;2023-05-10T13:28:48;17.60;84.30
24618;DHT22;12762;51.730;5.356;2023-05-10T13:31:15;17.60;84.20
24618;DHT22;12762;51.730;5.356;2023-05-10T13:33:42;17.60;84.00
24618;DHT22;12762;51.730;5.356;2023-05-10T13:36:11;17.70;84.10
24618;DHT22;12762;51.730;5.356;2023-05-10T13:38:38;17.70;84.10
24618;DHT22;12762;51.730;5.356;2023-05-10T13:41:05;17.70;84.10
24618;DHT22;12762;51.730;5.356;2023-05-10T13:43:32;17.80;84.10
24618;DHT22;12762;51.730;5.356;2023-05-10T13:46:03;17.90;84.10
24618;DHT22;12762;51.730;5.356;2023-05-10T13:48:30;18.00;83.90
24618;DHT22;12762;51.730;5.356;2023-05-10T13:50:57;18.00;83.60
24618;DHT22;12762;51.730;5.356;2023-05-10T13:53:24;18.00;83.40
24618;DHT22;12762;51.730;5.356;2023-05-10T13:55:51;18.10;83.20
24618;DHT22;12762;51.730;5.356;2023-05-10T13:58:17;18.10;83.00
24618;DHT22;12762;51.730;5.356;2023-05-10T14:00:44;18.10;83.00
24618;DHT22;12762;51.730;5.356;2023-05-10T14:03:11;18.10;83.00
24618;DHT22;12762;51.730;5.356;2023-05-10T14:05:38;18.10;82.80
24618;DHT22;12762;51.730;5.356;2023-05-10T14:08:05;18.00;82.20
24618;DHT22;12762;51.730;5.356;2023-05-10T14:10:35;18.00;82.50
24618;DHT22;12762;51.730;5.356;2023-05-10T14:13:03;17.90;83.50
24618;DHT22;12762;51.730;5.356;2023-05-10T14:15:30;17.80;82.90
24618;DHT22;12762;51.730;5.356;2023-05-10T14:17:57;17.80;83.00
24618;DHT22;12762;51.730;5.356;2023-05-10T14:20:24;17.80;83.30
24618;DHT22;12762;51.730;5.356;2023-05-10T14:22:50;17.70;83.30
24618;DHT22;12762;51.730;5.356;2023-05-10T14:25:20;17.70;83.40
24618;DHT22;12762;51.730;5.356;2023-05-10T14:27:47;17.70;83.60
24618;DHT22;12762;51.730;5.356;2023-05-10T14:30:14;17.70;83.70
24618;DHT22;12762;51.730;5.356;2023-05-10T14:32:41;17.70;83.90
24618;DHT22;12762;51.730;5.356;2023-05-10T14:35:08;17.60;83.70
24618;DHT22;12762;51.730;5.356;2023-05-10T14:37:38;17.60;83.70
24618;DHT22;12762;51.730;5.356;2023-05-10T14:40:07;17.60;83.70
24618;DHT22;12762;51.730;5.356;2023-05-10T14:42:35;17.60;83.70
24618;DHT22;12762;51.730;5.356;2023-05-10T14:45:05;17.60;83.90
24618;DHT22;12762;51.730;5.356;2023-05-10T14:47:33;17.50;83.60
24618;DHT22;12762;51.730;5.356;2023-05-10T14:50:00;17.50;83.80
24618;DHT22;12762;51.730;5.356;2023-05-10T14:52:27;17.50;83.80
24618;DHT22;12762;51.730;5.356;2023-05-10T14:54:54;17.50;84.10
24618;DHT22;12762;51.730;5.356;2023-05-10T14:57:20;17.50;84.20
24618;DHT22;12762;51.730;5.356;2023-05-10T14:59:47;17.50;84.00
24618;DHT22;12762;51.730;5.356;2023-05-10T15:02:15;17.40;83.90
24618;DHT22;12762;51.730;5.356;2023-05-10T15:04:43;17.40;83.90
24618;DHT22;12762;51.730;5.356;2023-05-10T15:07:13;17.40;84.00
24618;DHT22;12762;51.730;5.356;2023-05-10T15:09:41;17.30;84.10
24618;DHT22;12762;51.730;5.356;2023-05-10T15:12:08;17.30;84.10
24618;DHT22;12762;51.730;5.356;2023-05-10T15:14:35;17.30;84.10
24618;DHT22;12762;51.730;5.356;2023-05-10T15:17:03;17.30;84.30
24618;DHT22;12762;51.730;5.356;2023-05-10T15:19:30;17.30;84.30
24618;DHT22;12762;51.730;5.356;2023-05-10T15:21:57;17.30;84.40
24618;DHT22;12762;51.730;5.356;2023-05-10T15:24:25;17.30;84.40
24618;DHT22;12762;51.730;5.356;2023-05-10T15:26:52;17.40;84.60
24618;DHT22;12762;51.730;5.356;2023-05-10T15:29:20;17.40;84.40
24618;DHT22;12762;51.730;5.356;2023-05-10T15:31:49;17.50;84.50
24618;DHT22;12762;51.730;5.356;2023-05-10T15:34:17;17.70;84.80
24618;DHT22;12762;51.730;5.356;2023-05-10T15:36:45;17.90;84.80
24618;DHT22;12762;51.730;5.356;2023-05-10T15:39:12;18.20;85.00
24618;DHT22;12762;51.730;5.356;2023-05-10T15:41:39;18.50;84.30
24618;DHT22;12762;51.730;5.356;2023-05-10T15:44:05;18.60;83.60
24618;DHT22;12762;51.730;5.356;2023-05-10T15:46:32;18.70;83.10
24618;DHT22;12762;51.730;5.356;2023-05-10T15:48:59;18.80;82.80
24618;DHT22;12762;51.730;5.356;2023-05-10T15:51:26;18.90;82.50
24618;DHT22;12762;51.730;5.356;2023-05-10T15:53:53;18.90;82.10
24618;DHT22;12762;51.730;5.356;2023-05-10T15:56:32;18.90;81.70
24618;DHT22;12762;51.730;5.356;2023-05-10T15:59:00;18.90;81.50
24618;DHT22;12762;51.730;5.356;2023-05-10T16:01:27;18.80;81.10
24618;DHT22;12762;51.730;5.356;2023-05-10T16:03:55;18.80;81.00
24618;DHT22;12762;51.730;5.356;2023-05-10T16:06:21;18.80;80.90